Time;durP1;ratioP1;P1;durP2;ratioP2;P2;SDS_P1;SDS_P2;PMS_P1;PMS_P2;Temp;Humidity;BMP_temperature;BMP_pressure;BME280_temperature;BME280_humidity;BME280_pressure;Samples;Min_cycle;Max_cycle;Signal;HPM_P1;HPM_P2
2021/09/22 00:00:45;;;;;;;;;;;;;;;;;;2084645;28;20404;-59
2021/09/22 00:01:46;;;;;;;;;;;;;;;;;;2083677;28;19921;-59
2021/09/22 00:02:47;;;;;;;;;;;;;;;;;;2081633;28;19928;-60
2021/09/22 00:03:48;;;;;;;;;;;;;;;;;;2085291;28;19920;-59
2021/09/22 00:04:49;;;;;;;;;;;;;;;;;;2083198;28;19921;-59
2021/09/22 00:05:50;;;;;;;;;;;;;;;;;;2081477;28;19928;-58
2021/09/22 00:06:50;;;;;;;;;;;;;;;;;;2085996;28;20000;-59
2021/09/22 00:07:51;;;;;;;;;;;;;;;;;;2082575;28;19921;-60
2021/09/22 00:08:52;;;;;;;;;;;;;;;;;;2081542;28;19967;-60
2021/09/22 00:09:53;;;;;;;;;;;;;;;;;;2085348;28;19921;-59
2021/09/22 00:10:54;;;;;;;;;;;;;;;;;;2089583;28;19990;-59
2021/09/22 00:11:54;;;;;;;;;;;;;;;;;;2089797;28;19967;-59
2021/09/22 00:12:55;;;;;;;;;;;;;;;;;;2087642;28;19960;-59
2021/09/22 00:13:56;;;;;;;;;;;;;;;;;;2089934;28;20340;-59
2021/09/22 00:14:57;;;;;;;;;;;;;;;;;;2089718;28;19928;-59
2021/09/22 00:15:58;;;;;;;;;;;;;;;;;;2087270;28;19921;-58
2021/09/22 00:16:59;;;;;;;;;;;;;;;;;;2089649;28;19921;-59
2021/09/22 00:17:59;;;;;;;;;;;;;;;;;;2089802;28;19928;-59
2021/09/22 00:19:00;;;;;;;;;;;;;;;;;;2087248;28;19921;-59
2021/09/22 00:20:01;;;;;;;;;;;;;;;;;;2089856;28;19921;-59
2021/09/22 00:21:02;;;;;;;;;;;;;;;;;;2089086;28;20294;-58
2021/09/22 00:22:02;;;;;;;;;;;;;;;;;;2087701;28;19929;-59
2021/09/22 00:23:03;;;;;;;;;;;;;;;;;;2089758;28;19927;-59
2021/09/22 00:24:08;;;;;;;;;;;;;;;;;;2088972;28;19927;-59
2021/09/22 00:25:09;;;;;;;;;;;;;;;;;;2087997;28;20023;-60
2021/09/22 00:26:10;;;;;;;;;;;;;;;;;;2089515;28;20054;-59
2021/09/22 00:27:11;;;;;;;;;;;;;;;;;;2089147;28;19925;-59
2021/09/22 00:28:12;;;;;;;;;;;;;;;;;;2085372;28;19943;-59
2021/09/22 00:29:12;;;;;;;;;;;;;;;;;;2081514;28;19920;-59
2021/09/22 00:30:13;;;;;;;;;;;;;;;;;;2083093;28;19921;-60
2021/09/22 00:31:16;;;;;;;;;;;;;;;;;;2085096;28;19932;-59
2021/09/22 00:32:17;;;;;;;;;;;;;;;;;;2081323;28;19947;-59
2021/09/22 00:33:18;;;;;;;;;;;;;;;;;;2084188;28;19920;-58
2021/09/22 00:34:19;;;;;;;;;;;;;;;;;;2088170;28;19920;-58
2021/09/22 00:35:19;;;;;;;;;;;;;;;;;;2089501;28;19977;-58
2021/09/22 00:36:20;;;;;;;;;;;;;;;;;;2088775;28;19982;-59
2021/09/22 00:37:21;;;;;;;;;;;;;;;;;;2088077;28;20263;-58
2021/09/22 00:38:22;;;;;;;;;;;;;;;;;;2089646;28;20384;-58
2021/09/22 00:39:23;;;;;;;;;;;;;;;;;;2088580;28;19920;-58
2021/09/22 00:40:23;;;;;;;;;;;;;;;;;;2083136;28;20359;-58
2021/09/22 00:41:24;;;;;;;;;;;;;;;;;;2081315;28;19925;-58
2021/09/22 00:42:25;;;;;;;;;;;;;;;;;;2085075;28;20003;-59
2021/09/22 00:43:26;;;;;;;;;;;;;;;;;;2088425;28;19920;-59
2021/09/22 00:44:27;;;;;;;;;;;;;;;;;;2089600;28;19920;-58
2021/09/22 00:45:29;;;;;;;;;;;;;;;;;;2088385;28;20278;-59
2021/09/22 00:46:30;;;;;;;;;;;;;;;;;;2081704;28;20004;-58
2021/09/22 00:47:31;;;;;;;;;;;;;;;;;;2081377;28;19921;-59
2021/09/22 00:48:32;;;;;;;;;;;;;;;;;;2085787;28;20318;-59
2021/09/22 00:49:33;;;;;;;;;;;;;;;;;;2081364;28;19956;-58
2021/09/22 00:50:34;;;;;;;;;;;;;;;;;;2079722;28;19928;-58
2021/09/22 00:51:34;;;;;;;;;;;;;;;;;;2084675;28;20010;-58
2021/09/22 00:52:35;;;;;;;;;;;;;;;;;;2089415;28;19920;-59
2021/09/22 00:53:36;;;;;;;;;;;;;;;;;;2089299;28;19928;-58
2021/09/22 00:54:37;;;;;;;;;;;;;;;;;;2087239;28;19943;-59
2021/09/22 00:55:40;;;;;;;;;;;;;;;;;;2090407;28;19927;-59
2021/09/22 00:56:57;;;;;;;;;;;;;;;;;;2090082;28;19929;-59
2021/09/22 00:57:59;;;;;;;;;;;;;;;;;;2089452;28;19921;-59
2021/09/22 00:58:59;;;;;;;;;;;;;;;;;;2090913;28;19959;-59
2021/09/22 01:00:00;;;;;;;;;;;;;;;;;;2089952;28;20153;-59
2021/09/22 01:01:01;;;;;;;;;;;;;;;;;;2089359;28;19921;-59
2021/09/22 01:02:02;;;;;;;;;;;;;;;;;;2090871;28;19920;-58
2021/09/22 01:03:03;;;;;;;;;;;;;;;;;;2089912;28;20289;-59
2021/09/22 01:04:04;;;;;;;;;;;;;;;;;;2084733;28;19921;-59
2021/09/22 01:05:05;;;;;;;;;;;;;;;;;;2082722;28;19974;-59
2021/09/22 01:06:06;;;;;;;;;;;;;;;;;;2086208;28;19975;-59
2021/09/22 01:07:07;;;;;;;;;;;;;;;;;;2090049;28;19927;-59
2021/09/22 01:08:09;;;;;;;;;;;;;;;;;;2090814;28;19920;-58
2021/09/22 01:09:10;;;;;;;;;;;;;;;;;;2089681;28;20326;-59
2021/09/22 01:10:11;;;;;;;;;;;;;;;;;;2083389;28;19928;-58
2021/09/22 01:11:12;;;;;;;;;;;;;;;;;;2082585;28;19964;-59
2021/09/22 01:12:13;;;;;;;;;;;;;;;;;;2086840;28;20286;-58
2021/09/22 01:13:14;;;;;;;;;;;;;;;;;;2090790;28;19921;-59
2021/09/22 01:14:14;;;;;;;;;;;;;;;;;;2090901;28;19929;-58
2021/09/22 01:15:15;;;;;;;;;;;;;;;;;;2088406;28;19936;-58
2021/09/22 01:16:16;;;;;;;;;;;;;;;;;;2090883;28;19925;-58
2021/09/22 01:17:17;;;;;;;;;;;;;;;;;;2090811;28;20058;-58
2021/09/22 01:18:18;;;;;;;;;;;;;;;;;;2088607;28;19920;-59
2021/09/22 01:19:19;;;;;;;;;;;;;;;;;;2090885;28;20383;-59
2021/09/22 01:20:20;;;;;;;;;;;;;;;;;;2090751;28;19921;-59
2021/09/22 01:21:21;;;;;;;;;;;;;;;;;;2087084;28;19920;-59
2021/09/22 01:22:22;;;;;;;;;;;;;;;;;;2082454;28;19925;-58
2021/09/22 01:23:23;;;;;;;;;;;;;;;;;;2082837;28;19943;-59
2021/09/22 01:24:23;;;;;;;;;;;;;;;;;;2088678;28;19920;-59
2021/09/22 01:25:24;;;;;;;;;;;;;;;;;;2090611;28;19939;-59
2021/09/22 01:26:25;;;;;;;;;;;;;;;;;;2090303;28;19927;-58
2021/09/22 01:27:26;;;;;;;;;;;;;;;;;;2087355;28;19974;-58
2021/09/22 01:28:27;;;;;;;;;;;;;;;;;;2082445;28;20271;-58
2021/09/22 01:29:27;;;;;;;;;;;;;;;;;;2083721;28;19921;-59
2021/09/22 01:30:28;;;;;;;;;;;;;;;;;;2086599;28;19921;-58
2021/09/22 01:31:29;;;;;;;;;;;;;;;;;;2082469;28;20359;-59
2021/09/22 01:32:30;;;;;;;;;;;;;;;;;;2084296;28;20372;-59
2021/09/22 01:33:31;;;;;;;;;;;;;;;;;;2085186;28;19927;-59
2021/09/22 01:34:32;;;;;;;;;;;;;;;;;;2082288;28;19928;-59
2021/09/22 01:35:32;;;;;;;;;;;;;;;;;;2084646;28;20332;-60
2021/09/22 01:36:33;;;;;;;;;;;;;;;;;;2083733;28;20355;-58
2021/09/22 01:37:34;;;;;;;;;;;;;;;;;;2082320;28;19983;-58
2021/09/22 01:38:35;;;;;;;;;;;;;;;;;;2086133;28;19920;-58
2021/09/22 01:39:35;;;;;;;;;;;;;;;;;;2090674;28;19973;-59
2021/09/22 01:40:36;;;;;;;;;;;;;;;;;;2090495;28;20353;-58
2021/09/22 01:41:37;;;;;;;;;;;;;;;;;;2089581;28;19931;-58
2021/09/22 01:42:38;;;;;;;;;;;;;;;;;;2082546;28;20394;-58
2021/09/22 01:43:39;;;;;;;;;;;;;;;;;;2082457;28;20003;-58
2021/09/22 01:44:40;;;;;;;;;;;;;;;;;;2087205;28;20333;-58
2021/09/22 01:45:40;;;;;;;;;;;;;;;;;;2090683;28;19931;-59
2021/09/22 01:46:41;;;;;;;;;;;;;;;;;;2090702;28;19920;-59
2021/09/22 01:47:42;;;;;;;;;;;;;;;;;;2088307;28;19920;-59
2021/09/22 01:48:43;;;;;;;;;;;;;;;;;;2090506;28;19932;-58
2021/09/22 01:49:44;;;;;;;;;;;;;;;;;;2090581;28;19950;-59
2021/09/22 01:50:45;;;;;;;;;;;;;;;;;;2087456;28;19972;-59
2021/09/22 01:51:45;;;;;;;;;;;;;;;;;;2090550;28;20286;-58
2021/09/22 01:52:46;;;;;;;;;;;;;;;;;;2090118;28;19920;-59
2021/09/22 01:53:47;;;;;;;;;;;;;;;;;;2088611;28;19920;-59
2021/09/22 01:54:48;;;;;;;;;;;;;;;;;;2090646;28;19920;-59
2021/09/22 01:55:49;;;;;;;;;;;;;;;;;;2090162;28;20278;-58
2021/09/22 01:56:50;;;;;;;;;;;;;;;;;;2088788;28;20002;-58
2021/09/22 01:57:50;;;;;;;;;;;;;;;;;;2090597;28;20428;-59
2021/09/22 01:58:54;;;;;;;;;;;;;;;;;;2089972;28;20012;-59
2021/09/22 01:59:55;;;;;;;;;;;;;;;;;;2088778;28;19921;-58
2021/09/22 02:00:56;;;;;;;;;;;;;;;;;;2090349;28;19921;-58
2021/09/22 02:01:57;;;;;;;;;;;;;;;;;;2089800;28;19928;-58
2021/09/22 02:02:58;;;;;;;;;;;;;;;;;;2088847;28;19982;-58
2021/09/22 02:03:59;;;;;;;;;;;;;;;;;;2090592;28;19920;-58
2021/09/22 02:05:00;;;;;;;;;;;;;;;;;;2089635;28;20255;-59
2021/09/22 02:06:00;;;;;;;;;;;;;;;;;;2087994;28;19928;-58
2021/09/22 02:07:01;;;;;;;;;;;;;;;;;;2089206;28;20489;-58
2021/09/22 02:08:02;;;;;;;;;;;;;;;;;;2089717;28;20646;-58
2021/09/22 02:09:03;;;;;;;;;;;;;;;;;;2090045;28;20404;-58
2021/09/22 02:10:04;;;;;;;;;;;;;;;;;;2090369;28;19927;-58
2021/09/22 02:11:05;;;;;;;;;;;;;;;;;;2089283;28;19932;-58
2021/09/22 02:12:05;;;;;;;;;;;;;;;;;;2083653;28;20367;-59
2021/09/22 02:13:06;;;;;;;;;;;;;;;;;;2082194;28;19921;-58
2021/09/22 02:14:07;;;;;;;;;;;;;;;;;;2085915;28;19928;-58
2021/09/22 02:15:08;;;;;;;;;;;;;;;;;;2089989;28;20370;-58
2021/09/22 02:16:09;;;;;;;;;;;;;;;;;;2090413;28;19970;-58
2021/09/22 02:17:10;;;;;;;;;;;;;;;;;;2088211;28;19920;-58
2021/09/22 02:18:10;;;;;;;;;;;;;;;;;;2090311;28;19921;-58
2021/09/22 02:19:11;;;;;;;;;;;;;;;;;;2090573;28;19921;-58
2021/09/22 02:20:12;;;;;;;;;;;;;;;;;;2089288;28;20003;-57
2021/09/22 02:21:13;;;;;;;;;;;;;;;;;;2082190;28;19921;-58
2021/09/22 02:22:14;;;;;;;;;;;;;;;;;;2082231;28;19921;-57
2021/09/22 02:23:15;;;;;;;;;;;;;;;;;;2087156;28;20270;-58
2021/09/22 02:24:15;;;;;;;;;;;;;;;;;;2090536;28;19920;-58
2021/09/22 02:25:16;;;;;;;;;;;;;;;;;;2090285;28;19931;-58
2021/09/22 02:26:17;;;;;;;;;;;;;;;;;;2088202;28;19920;-58
2021/09/22 02:27:18;;;;;;;;;;;;;;;;;;2082209;28;19943;-58
2021/09/22 02:28:19;;;;;;;;;;;;;;;;;;2081896;28;19921;-58
2021/09/22 02:29:20;;;;;;;;;;;;;;;;;;2088067;28;19920;-58
2021/09/22 02:30:21;;;;;;;;;;;;;;;;;;2082053;28;19921;-58
2021/09/22 02:31:22;;;;;;;;;;;;;;;;;;2082459;28;19928;-58
2021/09/22 02:32:23;;;;;;;;;;;;;;;;;;2087225;28;19928;-58
2021/09/22 02:33:24;;;;;;;;;;;;;;;;;;2082075;28;19925;-58
2021/09/22 02:34:24;;;;;;;;;;;;;;;;;;2082651;28;20299;-58
2021/09/22 02:35:25;;;;;;;;;;;;;;;;;;2086741;28;19921;-58
2021/09/22 02:36:26;;;;;;;;;;;;;;;;;;2081984;28;20297;-58
2021/09/22 02:37:27;;;;;;;;;;;;;;;;;;2083411;28;19921;-58
2021/09/22 02:38:28;;;;;;;;;;;;;;;;;;2086076;28;19928;-57
2021/09/22 02:39:29;;;;;;;;;;;;;;;;;;2082172;28;19928;-57
2021/09/22 02:40:29;;;;;;;;;;;;;;;;;;2083640;28;20374;-58
2021/09/22 02:41:30;;;;;;;;;;;;;;;;;;2088840;28;19921;-58
2021/09/22 02:42:31;;;;;;;;;;;;;;;;;;2090288;28;19927;-58
2021/09/22 02:43:32;;;;;;;;;;;;;;;;;;2089373;28;19921;-58
2021/09/22 02:44:33;;;;;;;;;;;;;;;;;;2088800;28;19924;-57
2021/09/22 02:45:34;;;;;;;;;;;;;;;;;;2090199;28;20263;-58
2021/09/22 02:46:34;;;;;;;;;;;;;;;;;;2089142;28;19929;-58
2021/09/22 02:47:35;;;;;;;;;;;;;;;;;;2088748;28;19959;-58
2021/09/22 02:48:36;;;;;;;;;;;;;;;;;;2090196;28;20298;-58
2021/09/22 02:49:37;;;;;;;;;;;;;;;;;;2089146;28;19927;-57
2021/09/22 02:50:38;;;;;;;;;;;;;;;;;;2082416;28;19929;-57
2021/09/22 02:51:39;;;;;;;;;;;;;;;;;;2082088;28;20336;-57
2021/09/22 02:52:39;;;;;;;;;;;;;;;;;;2085612;28;19971;-57
2021/09/22 02:53:40;;;;;;;;;;;;;;;;;;2089486;28;20270;-58
2021/09/22 02:54:41;;;;;;;;;;;;;;;;;;2090159;28;20389;-58
2021/09/22 02:55:42;;;;;;;;;;;;;;;;;;2089209;28;20365;-57
2021/09/22 02:56:43;;;;;;;;;;;;;;;;;;2088980;28;20345;-58
2021/09/22 02:57:44;;;;;;;;;;;;;;;;;;2090250;28;19928;-58
2021/09/22 02:58:44;;;;;;;;;;;;;;;;;;2087963;28;21265;-58
2021/09/22 02:59:45;;;;;;;;;;;;;;;;;;2090040;28;19924;-58
2021/09/22 03:00:47;;;;;;;;;;;;;;;;;;2090158;28;19927;-58
2021/09/22 03:01:48;;;;;;;;;;;;;;;;;;2087816;28;19928;-58
2021/09/22 03:02:49;;;;;;;;;;;;;;;;;;2090173;28;19920;-58
2021/09/22 03:03:50;;;;;;;;;;;;;;;;;;2090102;28;19920;-58
2021/09/22 03:04:51;;;;;;;;;;;;;;;;;;2087737;28;20275;-58
2021/09/22 03:05:52;;;;;;;;;;;;;;;;;;2081833;28;19928;-58
2021/09/22 03:06:53;;;;;;;;;;;;;;;;;;2081437;28;20359;-58
2021/09/22 03:07:54;;;;;;;;;;;;;;;;;;2087760;28;19971;-58
2021/09/22 03:08:54;;;;;;;;;;;;;;;;;;2081976;28;19931;-58
2021/09/22 03:09:55;;;;;;;;;;;;;;;;;;2082013;28;19921;-58
2021/09/22 03:10:57;;;;;;;;;;;;;;;;;;2087965;28;19921;-58
2021/09/22 03:11:58;;;;;;;;;;;;;;;;;;2090088;28;20003;-58
2021/09/22 03:12:59;;;;;;;;;;;;;;;;;;2089447;28;19928;-58
2021/09/22 03:14:00;;;;;;;;;;;;;;;;;;2088341;28;19920;-58
2021/09/22 03:15:01;;;;;;;;;;;;;;;;;;2090013;28;20343;-58
2021/09/22 03:16:02;;;;;;;;;;;;;;;;;;2089484;28;20290;-58
2021/09/22 03:17:03;;;;;;;;;;;;;;;;;;2085829;28;19921;-58
2021/09/22 03:18:03;;;;;;;;;;;;;;;;;;2081582;28;20263;-58
2021/09/22 03:19:04;;;;;;;;;;;;;;;;;;2083634;28;20506;-58
2021/09/22 03:20:05;;;;;;;;;;;;;;;;;;2085497;28;19925;-58
2021/09/22 03:21:06;;;;;;;;;;;;;;;;;;2081773;28;20294;-58
2021/09/22 03:22:07;;;;;;;;;;;;;;;;;;2084432;28;19920;-57
2021/09/22 03:23:07;;;;;;;;;;;;;;;;;;2084805;28;20353;-58
2021/09/22 03:24:08;;;;;;;;;;;;;;;;;;2081625;28;20432;-58
2021/09/22 03:25:09;;;;;;;;;;;;;;;;;;2084836;28;19928;-57
2021/09/22 03:26:10;;;;;;;;;;;;;;;;;;2088503;28;19932;-57
2021/09/22 03:27:11;;;;;;;;;;;;;;;;;;2090181;28;20334;-58
2021/09/22 03:28:11;;;;;;;;;;;;;;;;;;2088155;28;19927;-58
2021/09/22 03:29:12;;;;;;;;;;;;;;;;;;2089507;28;19927;-57
2021/09/22 03:30:13;;;;;;;;;;;;;;;;;;2089904;28;19924;-58
2021/09/22 03:31:14;;;;;;;;;;;;;;;;;;2088468;28;19927;-58
2021/09/22 03:32:15;;;;;;;;;;;;;;;;;;2089086;28;19925;-58
2021/09/22 03:33:16;;;;;;;;;;;;;;;;;;2090137;28;19966;-58
2021/09/22 03:34:17;;;;;;;;;;;;;;;;;;2087799;28;19932;-58
2021/09/22 03:35:17;;;;;;;;;;;;;;;;;;2088724;28;20102;-57
2021/09/22 03:36:18;;;;;;;;;;;;;;;;;;2089964;28;19961;-58
2021/09/22 03:37:19;;;;;;;;;;;;;;;;;;2087194;28;19929;-57
2021/09/22 03:38:20;;;;;;;;;;;;;;;;;;2081901;28;19928;-57
2021/09/22 03:39:21;;;;;;;;;;;;;;;;;;2082250;28;20000;-57
2021/09/22 03:40:22;;;;;;;;;;;;;;;;;;2087932;28;20020;-57
2021/09/22 03:41:23;;;;;;;;;;;;;;;;;;2089855;28;20286;-58
2021/09/22 03:42:24;;;;;;;;;;;;;;;;;;2089473;28;19975;-58
2021/09/22 03:43:25;;;;;;;;;;;;;;;;;;2089105;28;20263;-57
2021/09/22 03:44:25;;;;;;;;;;;;;;;;;;2089941;28;20270;-57
2021/09/22 03:45:27;;;;;;;;;;;;;;;;;;2089232;28;19986;-57
2021/09/22 03:46:28;;;;;;;;;;;;;;;;;;2088045;28;19925;-57
2021/09/22 03:47:28;;;;;;;;;;;;;;;;;;2089968;28;19921;-57
2021/09/22 03:48:29;;;;;;;;;;;;;;;;;;2089049;28;19932;-58
2021/09/22 03:49:30;;;;;;;;;;;;;;;;;;2084539;28;19928;-58
2021/09/22 03:50:31;;;;;;;;;;;;;;;;;;2080113;28;19964;-58
2021/09/22 03:51:32;;;;;;;;;;;;;;;;;;2084329;28;19944;-58
2021/09/22 03:52:32;;;;;;;;;;;;;;;;;;2088339;28;20012;-58
2021/09/22 03:53:33;;;;;;;;;;;;;;;;;;2089897;28;19920;-58
2021/09/22 03:54:34;;;;;;;;;;;;;;;;;;2089047;28;20274;-58
2021/09/22 03:55:35;;;;;;;;;;;;;;;;;;2088256;28;19925;-58
2021/09/22 03:56:36;;;;;;;;;;;;;;;;;;2089841;28;19921;-58
2021/09/22 03:57:36;;;;;;;;;;;;;;;;;;2088797;28;19925;-58
2021/09/22 03:58:37;;;;;;;;;;;;;;;;;;2089643;28;19967;-58
2021/09/22 03:59:39;;;;;;;;;;;;;;;;;;2089848;28;20390;-58
2021/09/22 04:00:39;;;;;;;;;;;;;;;;;;2088104;28;19935;-57
2021/09/22 04:01:40;;;;;;;;;;;;;;;;;;2089060;28;19943;-57
2021/09/22 04:02:42;;;;;;;;;;;;;;;;;;2089773;28;20382;-57
2021/09/22 04:03:43;;;;;;;;;;;;;;;;;;2087729;28;19925;-58
2021/09/22 04:04:44;;;;;;;;;;;;;;;;;;2089759;28;20003;-57
2021/09/22 04:05:45;;;;;;;;;;;;;;;;;;2089647;28;19939;-58
2021/09/22 04:06:46;;;;;;;;;;;;;;;;;;2087396;28;19921;-59
2021/09/22 04:07:46;;;;;;;;;;;;;;;;;;2089572;28;19920;-59
2021/09/22 04:08:47;;;;;;;;;;;;;;;;;;2089746;28;19925;-60
2021/09/22 04:09:48;;;;;;;;;;;;;;;;;;2088148;28;19927;-60
2021/09/22 04:10:49;;;;;;;;;;;;;;;;;;2081183;28;19928;-60
2021/09/22 04:11:50;;;;;;;;;;;;;;;;;;2081656;28;19925;-60
2021/09/22 04:12:50;;;;;;;;;;;;;;;;;;2087080;28;20329;-59
2021/09/22 04:13:51;;;;;;;;;;;;;;;;;;2081450;28;20333;-59
2021/09/22 04:14:53;;;;;;;;;;;;;;;;;;2081284;28;19924;-60
2021/09/22 04:15:54;;;;;;;;;;;;;;;;;;2087087;28;20007;-44
2021/09/22 04:16:55;;;;;;;;;;;;;;;;;;2081449;28;19931;-43
2021/09/22 04:17:56;;;;;;;;;;;;;;;;;;2081917;28;19921;-43
2021/09/22 04:18:57;;;;;;;;;;;;;;;;;;2086575;28;19921;-60
2021/09/22 04:19:57;;;;;;;;;;;;;;;;;;2081645;28;19967;-60
2021/09/22 04:20:58;;;;;;;;;;;;;;;;;;2082539;28;19948;-60
2021/09/22 04:21:59;;;;;;;;;;;;;;;;;;2085915;28;19925;-60
2021/09/22 04:23:00;;;;;;;;;;;;;;;;;;2081458;28;19929;-61
2021/09/22 04:24:01;;;;;;;;;;;;;;;;;;2083116;28;19925;-61
2021/09/22 04:25:02;;;;;;;;;;;;;;;;;;2087945;28;19920;-60
2021/09/22 04:26:02;;;;;;;;;;;;;;;;;;2089526;28;19920;-60
2021/09/22 04:27:03;;;;;;;;;;;;;;;;;;2088731;28;19936;-60
2021/09/22 04:28:04;;;;;;;;;;;;;;;;;;2087986;28;19966;-60
2021/09/22 04:29:05;;;;;;;;;;;;;;;;;;2089508;28;19932;-60
2021/09/22 04:30:06;;;;;;;;;;;;;;;;;;2088864;28;19964;-60
2021/09/22 04:31:07;;;;;;;;;;;;;;;;;;2089354;28;19924;-58
2021/09/22 04:32:08;;;;;;;;;;;;;;;;;;2091131;28;20366;-59
2021/09/22 04:33:08;;;;;;;;;;;;;;;;;;2090037;28;19927;-60
2021/09/22 04:34:09;;;;;;;;;;;;;;;;;;2089560;28;20371;-61
2021/09/22 04:35:10;;;;;;;;;;;;;;;;;;2091169;28;19921;-59
2021/09/22 04:36:11;;;;;;;;;;;;;;;;;;2089873;28;20027;-60
2021/09/22 04:37:12;;;;;;;;;;;;;;;;;;2084616;28;19928;-61
2021/09/22 04:38:13;;;;;;;;;;;;;;;;;;2083004;28;20370;-44
2021/09/22 04:39:13;;;;;;;;;;;;;;;;;;2086917;28;19929;-44
2021/09/22 04:40:14;;;;;;;;;;;;;;;;;;2083878;28;19925;-44
2021/09/22 04:41:15;;;;;;;;;;;;;;;;;;2082745;28;19924;-44
2021/09/22 04:42:16;;;;;;;;;;;;;;;;;;2086427;28;19920;-44
2021/09/22 04:43:17;;;;;;;;;;;;;;;;;;2090844;28;19924;-44
2021/09/22 04:44:18;;;;;;;;;;;;;;;;;;2091082;28;20011;-44
2021/09/22 04:45:19;;;;;;;;;;;;;;;;;;2089883;28;19920;-44
2021/09/22 04:46:20;;;;;;;;;;;;;;;;;;2082810;28;19921;-44
2021/09/22 04:47:20;;;;;;;;;;;;;;;;;;2082753;28;19920;-44
2021/09/22 04:48:21;;;;;;;;;;;;;;;;;;2087621;28;20366;-44
2021/09/22 04:49:22;;;;;;;;;;;;;;;;;;2091154;28;19927;-44
2021/09/22 04:50:23;;;;;;;;;;;;;;;;;;2090057;28;19920;-44
2021/09/22 04:51:24;;;;;;;;;;;;;;;;;;2088360;28;19971;-44
2021/09/22 04:52:25;;;;;;;;;;;;;;;;;;2082962;28;19927;-44
2021/09/22 04:53:25;;;;;;;;;;;;;;;;;;2082372;28;19971;-44
2021/09/22 04:54:26;;;;;;;;;;;;;;;;;;2089175;28;19968;-43
2021/09/22 04:55:27;;;;;;;;;;;;;;;;;;2090824;28;20362;-45
2021/09/22 04:56:28;;;;;;;;;;;;;;;;;;2090446;28;20019;-43
2021/09/22 04:57:28;;;;;;;;;;;;;;;;;;2088929;28;19920;-44
2021/09/22 04:58:29;;;;;;;;;;;;;;;;;;2090938;28;19920;-44
2021/09/22 04:59:30;;;;;;;;;;;;;;;;;;2090577;28;19920;-44
2021/09/22 05:00:31;;;;;;;;;;;;;;;;;;2088921;28;19928;-42
2021/09/22 05:01:32;;;;;;;;;;;;;;;;;;2090871;28;20384;-44
2021/09/22 05:02:33;;;;;;;;;;;;;;;;;;2090507;28;19948;-44
2021/09/22 05:03:34;;;;;;;;;;;;;;;;;;2084888;28;19975;-42
2021/09/22 05:04:36;;;;;;;;;;;;;;;;;;2082595;28;20468;-44
2021/09/22 05:05:36;;;;;;;;;;;;;;;;;;2086346;28;19927;-45
2021/09/22 05:06:37;;;;;;;;;;;;;;;;;;2084455;28;19975;-44
2021/09/22 05:07:38;;;;;;;;;;;;;;;;;;2082533;28;19921;-44
2021/09/22 05:08:39;;;;;;;;;;;;;;;;;;2086328;28;19931;-44
2021/09/22 05:09:40;;;;;;;;;;;;;;;;;;2090410;28;19921;-44
2021/09/22 05:10:41;;;;;;;;;;;;;;;;;;2090754;28;19966;-42
2021/09/22 05:11:43;;;;;;;;;;;;;;;;;;2088651;28;19932;-44
2021/09/22 05:12:44;;;;;;;;;;;;;;;;;;2090917;28;20007;-43
2021/09/22 05:13:44;;;;;;;;;;;;;;;;;;2090919;28;19920;-44
2021/09/22 05:14:45;;;;;;;;;;;;;;;;;;2088833;28;19928;-44
2021/09/22 05:15:46;;;;;;;;;;;;;;;;;;2082468;28;19920;-43
2021/09/22 05:16:49;;;;;;;;;;;;;;;;;;2082648;28;19921;-42
2021/09/22 05:17:50;;;;;;;;;;;;;;;;;;2088017;28;19921;-44
2021/09/22 05:18:51;;;;;;;;;;;;;;;;;;2090739;28;19920;-44
2021/09/22 05:19:52;;;;;;;;;;;;;;;;;;2090444;28;19920;-44
2021/09/22 05:20:52;;;;;;;;;;;;;;;;;;2088834;28;19943;-44
2021/09/22 05:21:53;;;;;;;;;;;;;;;;;;2090788;28;19925;-44
2021/09/22 05:22:54;;;;;;;;;;;;;;;;;;2090306;28;19921;-44
2021/09/22 05:23:55;;;;;;;;;;;;;;;;;;2087871;28;19931;-44
2021/09/22 05:24:56;;;;;;;;;;;;;;;;;;2082600;28;19927;-44
2021/09/22 05:25:57;;;;;;;;;;;;;;;;;;2083230;28;20354;-44
2021/09/22 05:26:57;;;;;;;;;;;;;;;;;;2085755;28;20381;-44
2021/09/22 05:27:58;;;;;;;;;;;;;;;;;;2082409;28;19925;-43
2021/09/22 05:28:59;;;;;;;;;;;;;;;;;;2083935;28;19921;-43
2021/09/22 05:30:00;;;;;;;;;;;;;;;;;;2088269;28;19927;-44
2021/09/22 05:31:00;;;;;;;;;;;;;;;;;;2090531;28;19920;-44
2021/09/22 05:32:02;;;;;;;;;;;;;;;;;;2089843;28;20377;-43
2021/09/22 05:33:02;;;;;;;;;;;;;;;;;;2086148;28;20024;-44
2021/09/22 05:34:18;;;;;;;;;;;;;;;;;;2082388;28;19975;-42
2021/09/22 05:35:19;;;;;;;;;;;;;;;;;;2086477;28;19936;-44
2021/09/22 05:36:20;;;;;;;;;;;;;;;;;;2090446;28;20642;-44
2021/09/22 05:37:21;;;;;;;;;;;;;;;;;;2090861;28;20037;-41
2021/09/22 05:38:22;;;;;;;;;;;;;;;;;;2089375;28;20377;-43
2021/09/22 05:39:23;;;;;;;;;;;;;;;;;;2083216;28;19921;-44
2021/09/22 05:40:24;;;;;;;;;;;;;;;;;;2082317;28;19921;-42
2021/09/22 05:41:25;;;;;;;;;;;;;;;;;;2086567;28;19973;-44
2021/09/22 05:42:26;;;;;;;;;;;;;;;;;;2090594;28;19920;-43
2021/09/22 05:43:27;;;;;;;;;;;;;;;;;;2090559;28;19927;-43
2021/09/22 05:44:28;;;;;;;;;;;;;;;;;;2088532;28;19929;-43
2021/09/22 05:45:29;;;;;;;;;;;;;;;;;;2082290;28;19975;-42
2021/09/22 05:46:30;;;;;;;;;;;;;;;;;;2082433;28;19921;-42
2021/09/22 05:47:30;;;;;;;;;;;;;;;;;;2086067;28;19925;-43
2021/09/22 05:48:31;;;;;;;;;;;;;;;;;;2082328;28;19921;-44
2021/09/22 05:49:32;;;;;;;;;;;;;;;;;;2084097;28;19933;-43
2021/09/22 05:50:33;;;;;;;;;;;;;;;;;;2084794;28;19921;-44
2021/09/22 05:51:34;;;;;;;;;;;;;;;;;;2082500;28;20027;-44
2021/09/22 05:52:35;;;;;;;;;;;;;;;;;;2084437;28;20283;-44
2021/09/22 05:53:36;;;;;;;;;;;;;;;;;;2085772;28;19947;-44
2021/09/22 05:54:36;;;;;;;;;;;;;;;;;;2082462;28;20264;-43
2021/09/22 05:55:38;;;;;;;;;;;;;;;;;;2084877;28;19925;-42
2021/09/22 05:56:38;;;;;;;;;;;;;;;;;;2084309;28;19921;-44
2021/09/22 05:57:41;;;;;;;;;;;;;;;;;;2082295;28;20354;-43
2021/09/22 05:58:41;;;;;;;;;;;;;;;;;;2085803;28;20003;-42
2021/09/22 05:59:44;;;;;;;;;;;;;;;;;;2084351;28;19943;-44
2021/09/22 06:00:45;;;;;;;;;;;;;;;;;;2082205;28;20015;-45
2021/09/22 06:01:46;;;;;;;;;;;;;;;;;;2085840;28;20047;-42
2021/09/22 06:02:47;;;;;;;;;;;;;;;;;;2089901;28;19979;-42
2021/09/22 06:03:48;;;;;;;;;;;;;;;;;;2090493;28;19921;-44
2021/09/22 06:04:49;;;;;;;;;;;;;;;;;;2089597;28;19920;-59
2021/09/22 06:05:50;;;;;;;;;;;;;;;;;;2082843;28;20374;-61
2021/09/22 06:06:50;;;;;;;;;;;;;;;;;;2082216;28;19925;-60
2021/09/22 06:07:51;;;;;;;;;;;;;;;;;;2086568;28;19929;-60
2021/09/22 06:08:52;;;;;;;;;;;;;;;;;;2090425;28;19925;-60
2021/09/22 06:09:53;;;;;;;;;;;;;;;;;;2090425;28;20370;-60
2021/09/22 06:10:54;;;;;;;;;;;;;;;;;;2087991;28;19921;-61
2021/09/22 06:11:55;;;;;;;;;;;;;;;;;;2090728;28;19921;-44
2021/09/22 06:12:56;;;;;;;;;;;;;;;;;;2090315;28;20011;-44
2021/09/22 06:13:57;;;;;;;;;;;;;;;;;;2088227;28;19928;-44
2021/09/22 06:14:57;;;;;;;;;;;;;;;;;;2090432;28;20002;-44
2021/09/22 06:15:58;;;;;;;;;;;;;;;;;;2089909;28;20382;-44
2021/09/22 06:16:59;;;;;;;;;;;;;;;;;;2088673;28;20048;-44
2021/09/22 06:18:00;;;;;;;;;;;;;;;;;;2090624;28;19924;-44
2021/09/22 06:19:02;;;;;;;;;;;;;;;;;;2089984;28;19920;-44
2021/09/22 06:20:03;;;;;;;;;;;;;;;;;;2087062;28;20468;-44
2021/09/22 06:21:04;;;;;;;;;;;;;;;;;;2082039;28;19925;-44
2021/09/22 06:22:05;;;;;;;;;;;;;;;;;;2083360;28;19967;-44
2021/09/22 06:23:11;;;;;;;;;;;;;;;;;;2086012;28;19921;-43
2021/09/22 06:24:18;;;;;;;;;;;;;;;;;;2082086;28;19921;-44
2021/09/22 06:25:19;;;;;;;;;;;;;;;;;;2084976;28;20007;-44
2021/09/22 06:26:19;;;;;;;;;;;;;;;;;;2084750;28;19921;-44
2021/09/22 06:27:20;;;;;;;;;;;;;;;;;;2082218;28;19921;-44
2021/09/22 06:28:21;;;;;;;;;;;;;;;;;;2085526;28;19921;-44
2021/09/22 06:29:22;;;;;;;;;;;;;;;;;;2089055;28;19920;-45
2021/09/22 06:30:24;;;;;;;;;;;;;;;;;;2090235;28;19943;-44
2021/09/22 06:31:25;;;;;;;;;;;;;;;;;;2089096;28;19967;-44
2021/09/22 06:32:25;;;;;;;;;;;;;;;;;;2090160;28;20011;-44
2021/09/22 06:33:26;;;;;;;;;;;;;;;;;;2090306;28;19921;-44
2021/09/22 06:34:27;;;;;;;;;;;;;;;;;;2088413;28;19924;-44
2021/09/22 06:35:28;;;;;;;;;;;;;;;;;;2088976;28;19970;-44
2021/09/22 06:36:29;;;;;;;;;;;;;;;;;;2090366;28;19921;-44
2021/09/22 06:37:30;;;;;;;;;;;;;;;;;;2088045;28;19929;-44
2021/09/22 06:38:31;;;;;;;;;;;;;;;;;;2090257;28;19924;-44
2021/09/22 06:39:31;;;;;;;;;;;;;;;;;;2090294;28;19920;-44
2021/09/22 06:40:32;;;;;;;;;;;;;;;;;;2087855;28;20286;-44
2021/09/22 06:41:33;;;;;;;;;;;;;;;;;;2090296;28;19921;-45
2021/09/22 06:42:34;;;;;;;;;;;;;;;;;;2090320;28;20347;-45
2021/09/22 06:43:35;;;;;;;;;;;;;;;;;;2088125;28;19931;-45
2021/09/22 06:44:37;;;;;;;;;;;;;;;;;;2082341;28;20333;-59
2021/09/22 06:45:38;;;;;;;;;;;;;;;;;;2081567;28;20007;-59
2021/09/22 06:46:39;;;;;;;;;;;;;;;;;;2087496;28;19925;-59
2021/09/22 06:47:40;;;;;;;;;;;;;;;;;;2090277;28;19924;-59
2021/09/22 06:48:40;;;;;;;;;;;;;;;;;;2089685;28;20368;-60
2021/09/22 06:49:41;;;;;;;;;;;;;;;;;;2088195;28;19925;-59
2021/09/22 06:50:42;;;;;;;;;;;;;;;;;;2085976;28;19920;-60
2021/09/22 06:51:43;;;;;;;;;;;;;;;;;;2082991;28;20357;-59
2021/09/22 06:52:45;;;;;;;;;;;;;;;;;;2087065;28;19959;-59
2021/09/22 06:53:46;;;;;;;;;;;;;;;;;;2089973;28;19951;-60
2021/09/22 06:54:47;;;;;;;;;;;;;;;;;;2089607;28;19920;-60
2021/09/22 06:55:48;;;;;;;;;;;;;;;;;;2088359;28;20428;-60
2021/09/22 06:56:49;;;;;;;;;;;;;;;;;;2090219;28;19921;-60